Time;durP1;ratioP1;P1;durP2;ratioP2;P2;SDS_P1;SDS_P2;PMS_P1;PMS_P2;Temp;Humidity;BMP_temperature;BMP_pressure;BME280_temperature;BME280_humidity;BME280_pressure;Samples;Min_cycle;Max_cycle;Signal;HPM_P1;HPM_P2
2024/01/17 00:04:50;;;;;;;13.67;9.63;;;;;;;0.35;40.80;98470.44;10453964;28;20238;-72
2024/01/17 00:09:51;;;;;;;12.10;9.20;;;;;;;0.05;41.62;98420.66;10451566;28;20234;-74
2024/01/17 00:14:53;;;;;;;14.33;9.33;;;;;;;-0.44;42.10;98504.25;10473115;28;20321;-73
2024/01/17 00:19:55;;;;;;;11.07;9.50;;;;;;;1.74;40.13;98212.06;10476506;28;20235;-72
2024/01/17 00:24:56;;;;;;;16.30;10.00;;;;;;;-0.28;42.03;98536.00;10475631;28;20263;-72
2024/01/17 00:29:58;;;;;;;11.93;10.03;;;;;;;-0.18;42.26;98438.69;10477487;28;20233;-71
2024/01/17 00:35:00;;;;;;;14.23;9.30;;;;;;;-0.24;42.75;98378.78;10457267;28;20230;-72
2024/01/17 00:40:02;;;;;;;15.93;10.03;;;;;;;-0.91;43.11;98493.72;10473112;28;20235;-72
2024/01/17 00:45:06;;;;;;;14.80;9.80;;;;;;;-2.68;46.02;98533.72;10477039;28;20237;-70
2024/01/17 00:50:09;;;;;;;13.77;10.07;;;;;;;-1.43;44.21;98310.34;10456372;28;20732;-72
2024/01/17 00:55:11;;;;;;;13.00;10.93;;;;;;;-0.51;43.54;98127.38;10460159;28;20310;-72
2024/01/17 01:00:13;;;;;;;14.97;11.10;;;;;;;1.33;40.42;98120.63;10470322;28;20338;-71
2024/01/17 01:05:15;;;;;;;9.90;8.80;;;;;;;0.30;41.34;98284.06;10481073;28;20234;-72
2024/01/17 01:10:17;;;;;;;16.20;10.00;;;;;;;-0.17;41.63;98400.88;10476312;28;20280;-72
2024/01/17 01:15:19;;;;;;;11.23;9.80;;;;;;;-0.64;42.21;98435.97;10476193;28;20230;-72
2024/01/17 01:20:21;;;;;;;14.33;10.63;;;;;;;-1.29;43.81;98400.94;10473859;28;20234;-72
2024/01/17 01:25:22;;;;;;;12.37;10.70;;;;;;;-1.98;44.80;98461.31;10455233;28;20230;-73
2024/01/17 01:30:24;;;;;;;17.53;11.07;;;;;;;-1.63;44.12;98368.13;10480024;28;20243;-70
2024/01/17 01:35:26;;;;;;;15.17;11.43;;;;;;;-1.15;44.12;98213.28;10473012;28;20235;-71
2024/01/17 01:40:27;;;;;;;16.87;10.63;;;;;;;-0.88;44.58;98039.88;10472962;28;20675;-71
2024/01/17 01:45:29;;;;;;;11.97;9.50;;;;;;;-0.15;42.49;98072.88;10475493;28;20252;-72
2024/01/17 01:50:30;;;;;;;13.30;10.67;;;;;;;0.02;41.91;98121.13;10472882;28;20314;-70
2024/01/17 01:55:32;;;;;;;15.67;9.87;;;;;;;-0.70;42.96;98239.50;10454563;28;20663;-71
2024/01/17 02:00:34;;;;;;;14.20;10.40;;;;;;;-1.70;44.59;98355.72;10469358;28;20250;-71
2024/01/17 02:05:36;;;;;;;12.47;9.27;;;;;;;-1.44;44.23;98270.16;10475826;28;20232;-70
2024/01/17 02:10:39;;;;;;;13.73;9.83;;;;;;;-0.20;43.39;97983.13;10473009;28;20231;-72
2024/01/17 02:15:41;;;;;;;11.47;9.00;;;;;;;-1.61;45.15;98284.88;10450187;28;20724;-71
2024/01/17 02:20:43;;;;;;;13.20;9.10;;;;;;;0.04;43.07;97944.72;10469619;28;20437;-72
2024/01/17 02:25:44;;;;;;;13.83;9.77;;;;;;;0.12;42.37;98037.66;10471760;28;20234;-72
2024/01/17 02:30:46;;;;;;;12.03;9.20;;;;;;;0.92;41.31;97967.00;10470364;28;20227;-71
2024/01/17 02:35:48;;;;;;;12.17;9.53;;;;;;;0.01;42.87;98071.31;10473532;28;20231;-70
2024/01/17 02:40:50;;;;;;;11.80;8.93;;;;;;;1.82;40.26;98095.19;10468707;28;20234;-71
2024/01/17 02:45:52;;;;;;;11.33;8.70;;;;;;;0.76;41.54;98202.19;10464002;28;20238;-71
2024/01/17 02:50:53;;;;;;;13.07;9.70;;;;;;;2.29;40.25;98021.28;10471448;28;20240;-71
2024/01/17 02:55:55;;;;;;;15.47;9.43;;;;;;;1.48;41.34;98010.06;10473012;28;20644;-71
2024/01/17 03:00:57;;;;;;;12.27;9.70;;;;;;;1.56;39.76;98255.25;10467878;28;20239;-72
2024/01/17 03:05:59;;;;;;;11.80;9.70;;;;;;;2.35;39.64;98060.19;10474700;28;20235;-72
2024/01/17 03:11:01;;;;;;;16.17;10.53;;;;;;;0.86;41.65;98264.28;10471879;28;20234;-73
2024/01/17 03:16:03;;;;;;;12.80;9.57;;;;;;;0.39;42.80;98135.75;10469895;28;20320;-72
2024/01/17 03:21:05;;;;;;;12.93;10.17;;;;;;;-0.13;43.53;98172.63;10472278;28;20242;-73
2024/01/17 03:26:07;;;;;;;12.77;10.10;;;;;;;1.56;41.45;98072.50;10472873;28;20233;-72
2024/01/17 03:31:08;;;;;;;14.00;9.83;;;;;;;0.76;43.34;97973.09;10468806;28;20659;-71
2024/01/17 03:36:10;;;;;;;13.53;9.57;;;;;;;0.62;42.25;98204.44;10471477;28;20452;-73
2024/01/17 03:41:12;;;;;;;11.23;9.13;;;;;;;1.48;41.91;98009.25;10463375;28;20356;-71
2024/01/17 03:46:13;;;;;;;14.23;9.63;;;;;;;-0.01;43.89;98218.75;10468288;28;20234;-71
2024/01/17 03:51:15;;;;;;;16.33;9.93;;;;;;;-1.14;46.49;98076.63;10476631;28;20266;-71
2024/01/17 03:56:17;;;;;;;11.03;9.50;;;;;;;0.08;44.36;97977.63;10479696;28;20317;-72
2024/01/17 04:01:18;;;;;;;15.60;10.63;;;;;;;0.09;44.43;97934.56;10476899;28;20243;-72
2024/01/17 04:06:20;;;;;;;15.93;10.83;;;;;;;-0.76;44.89;98147.34;10478540;28;20243;-71
2024/01/17 04:11:22;;;;;;;13.80;11.00;;;;;;;-0.52;44.86;98018.81;10478900;28;20259;-73
2024/01/17 04:16:23;;;;;;;16.07;10.83;;;;;;;-0.37;44.81;97984.88;10460357;28;20243;-71
2024/01/17 04:21:25;;;;;;;13.60;11.07;;;;;;;-0.06;44.63;97879.97;10477588;28;20620;-72
2024/01/17 04:26:27;;;;;;;12.40;10.47;;;;;;;0.61;43.91;97917.66;10478436;28;20239;-73
2024/01/17 04:31:29;;;;;;;14.10;9.60;;;;;;;0.92;43.39;97869.56;10470668;28;20236;-73
2024/01/17 04:36:31;;;;;;;12.97;11.00;;;;;;;-0.53;45.80;97922.56;10480667;28;20616;-69
2024/01/17 04:41:33;;;;;;;17.83;11.27;;;;;;;-0.93;45.62;98115.69;10462135;28;20229;-69
2024/01/17 04:46:37;;;;;;;16.47;13.17;;;;;;;-0.89;47.13;97877.22;10473451;28;20246;-70
2024/01/17 04:51:40;;;;;;;12.70;10.70;;;;;;;-0.41;45.50;97940.69;10468118;28;20667;-70
2024/01/17 04:56:42;;;;;;;14.20;10.97;;;;;;;0.55;45.97;97642.78;10474321;28;20246;-70
2024/01/17 05:01:44;;;;;;;13.07;10.07;;;;;;;0.84;45.45;97614.97;10475950;28;20341;-70
2024/01/17 05:06:46;;;;;;;15.77;11.23;;;;;;;0.29;45.64;97732.47;10472437;28;20292;-70
2024/01/17 05:11:48;;;;;;;13.10;10.20;;;;;;;0.31;44.96;97754.22;10452661;28;20254;-68
2024/01/17 05:16:50;;;;;;;14.63;10.43;;;;;;;-0.76;46.26;97950.34;10470124;28;20720;-70
2024/01/17 05:21:52;;;;;;;16.00;11.60;;;;;;;0.20;45.03;97771.16;10471367;28;20227;-69
2024/01/17 05:26:53;;;;;;;16.10;11.37;;;;;;;-1.39;47.65;97989.78;10477471;28;20317;-70
2024/01/17 05:31:55;;;;;;;16.37;12.00;;;;;;;-0.37;47.23;97700.19;10471918;28;20253;-70
2024/01/17 05:36:57;;;;;;;17.80;11.27;;;;;;;0.13;46.10;97707.06;10476840;28;20256;-70
2024/01/17 05:41:58;;;;;;;17.07;12.30;;;;;;;-1.34;47.78;97951.75;10473065;28;20241;-69
2024/01/17 05:47:00;;;;;;;14.70;12.63;;;;;;;0.55;46.00;97600.66;10454883;28;20231;-68
2024/01/17 05:52:02;;;;;;;14.43;12.83;;;;;;;0.27;45.44;97806.31;10468506;28;20540;-70
2024/01/17 05:57:04;;;;;;;16.80;13.13;;;;;;;-0.29;46.75;97787.75;10469322;28;20228;-70
2024/01/17 06:02:06;;;;;;;17.53;11.67;;;;;;;-0.33;47.56;97697.09;10471631;28;20730;-69
2024/01/17 06:07:07;;;;;;;14.13;10.87;;;;;;;-0.02;46.74;97724.50;10467588;28;20318;-69
2024/01/17 06:12:10;;;;;;;16.17;11.13;;;;;;;0.84;45.44;97654.47;10473487;28;20272;-70
2024/01/17 06:17:12;;;;;;;12.37;10.17;;;;;;;2.50;43.00;97594.72;10459507;28;20666;-70
2024/01/17 06:22:18;;;;;;;15.37;11.73;;;;;;;1.61;44.32;97585.06;10458242;28;20288;-70
2024/01/17 06:27:20;;;;;;;16.87;10.40;;;;;;;3.32;42.20;97531.94;10469082;28;20390;-70
2024/01/17 06:32:22;;;;;;;13.83;11.63;;;;;;;0.79;45.33;97781.38;10457257;28;20320;-69
2024/01/17 06:37:23;;;;;;;14.90;10.87;;;;;;;1.83;44.16;97685.38;10461962;28;20417;-71
2024/01/17 06:42:25;;;;;;;14.10;11.13;;;;;;;0.76;45.76;97800.13;10455030;28;20360;-69
2024/01/17 06:47:27;;;;;;;16.40;11.87;;;;;;;2.33;43.93;97513.16;10453828;28;20322;-70
2024/01/17 06:52:28;;;;;;;17.73;11.70;;;;;;;2.53;43.94;97468.47;10464095;28;20710;-70
2024/01/17 06:57:30;;;;;;;13.70;11.50;;;;;;;2.04;43.87;97616.91;10468362;28;20318;-69
2024/01/17 07:02:32;;;;;;;18.43;12.23;;;;;;;1.36;44.06;97761.84;10466872;28;20253;-67
2024/01/17 07:07:33;;;;;;;15.10;11.57;;;;;;;0.81;45.48;97731.16;10465667;28;20366;-68
2024/01/17 07:12:35;;;;;;;13.77;10.87;;;;;;;1.85;44.74;97520.69;10452599;28;20239;-68
2024/01/17 07:17:37;;;;;;;14.80;11.47;;;;;;;0.85;45.10;97761.44;10472004;28;20689;-69
2024/01/17 07:22:42;;;;;;;17.20;11.27;;;;;;;1.43;45.57;97554.56;10479938;28;20239;-68
2024/01/17 07:27:45;;;;;;;18.33;11.23;;;;;;;1.76;45.75;97446.13;10461609;28;20235;-68
2024/01/17 07:32:47;;;;;;;18.03;13.40;;;;;;;0.99;45.46;97672.97;10473671;28;20732;-68
2024/01/17 07:37:50;;;;;;;16.13;12.77;;;;;;;1.48;45.70;97574.31;10479373;28;20223;-69
2024/01/17 07:42:53;;;;;;;13.97;11.03;;;;;;;1.35;45.82;97607.34;10470109;28;20345;-70
2024/01/17 07:47:55;;;;;;;16.07;11.77;;;;;;;1.58;45.77;97493.97;10453580;28;20221;-69
2024/01/17 07:52:57;;;;;;;16.07;13.33;;;;;;;0.50;47.50;97631.94;10465787;28;20245;-68
2024/01/17 07:57:59;;;;;;;17.40;12.67;;;;;;;1.05;46.43;97595.88;10481684;28;20643;-67
2024/01/17 08:03:01;;;;;;;16.60;13.03;;;;;;;1.43;46.38;97541.41;10469037;28;20779;-68
2024/01/17 08:08:03;;;;;;;18.63;14.43;;;;;;;2.88;44.84;97333.81;10471877;28;20258;-71
2024/01/17 08:13:05;;;;;;;15.50;12.37;;;;;;;0.16;47.78;97709.34;10488117;28;20706;-69
2024/01/17 08:18:08;;;;;;;14.60;12.23;;;;;;;1.23;46.19;97598.22;10479610;28;20939;-70
2024/01/17 08:23:10;;;;;;;23.07;16.53;;;;;;;2.40;45.88;97302.03;10468558;28;20789;-69
2024/01/17 08:28:12;;;;;;;17.17;13.20;;;;;;;1.90;46.80;97352.16;10473050;28;20595;-70
2024/01/17 08:33:15;;;;;;;17.80;12.23;;;;;;;1.83;46.79;97377.63;10462070;28;20251;-70
2024/01/17 08:38:16;;;;;;;14.87;12.20;;;;;;;2.08;46.55;97379.91;10461107;28;20600;-69
2024/01/17 08:43:18;;;;;;;16.43;14.03;;;;;;;1.64;46.83;97499.50;10472962;28;20403;-69
2024/01/17 08:48:20;;;;;;;17.17;13.90;;;;;;;1.96;46.72;97424.41;10479676;28;20249;-70
2024/01/17 08:53:21;;;;;;;15.77;12.20;;;;;;;2.63;45.72;97316.81;10474356;28;20231;-70
2024/01/17 08:58:23;;;;;;;15.87;12.03;;;;;;;2.71;45.51;97396.69;10474955;28;20633;-67
2024/01/17 09:03:25;;;;;;;15.30;12.03;;;;;;;1.59;47.54;97461.34;10475946;28;21144;-69
2024/01/17 09:08:27;;;;;;;15.47;12.27;;;;;;;3.08;45.64;97264.44;10474977;28;20235;-69
2024/01/17 09:13:28;;;;;;;16.53;13.43;;;;;;;1.73;45.61;97625.81;10456594;28;20243;-68
2024/01/17 09:18:30;;;;;;;17.10;11.93;;;;;;;2.79;44.94;97484.72;10479245;28;20682;-67
2024/01/17 09:23:32;;;;;;;14.23;12.43;;;;;;;2.97;46.26;97281.66;10476810;28;20235;-70
2024/01/17 09:28:33;;;;;;;14.47;11.50;;;;;;;3.58;44.35;97391.09;10474197;28;20254;-70
2024/01/17 09:33:35;;;;;;;15.57;11.27;;;;;;;3.04;44.71;97541.47;10469246;28;20557;-71
2024/01/17 09:38:37;;;;;;;15.00;12.53;;;;;;;3.83;44.49;97336.69;10476436;28;20722;-67
2024/01/17 09:43:39;;;;;;;16.87;12.93;;;;;;;3.84;44.69;97300.44;10466225;28;20621;-69
2024/01/17 09:48:41;;;;;;;12.80;11.40;;;;;;;3.50;45.15;97384.19;10469307;28;20241;-71
2024/01/17 09:53:50;;;;;;;14.53;12.87;;;;;;;3.46;45.27;97312.38;10468790;28;20241;-70
2024/01/17 09:58:54;;;;;;;14.57;12.83;;;;;;;4.76;43.36;97261.72;10465745;28;20238;-68
2024/01/17 10:03:59;;;;;;;14.30;11.83;;;;;;;4.19;44.10;97350.56;10470338;28;20230;-71
2024/01/17 10:09:02;;;;;;;14.30;12.17;;;;;;;3.99;44.67;97358.47;10473531;28;20242;-69
2024/01/17 10:14:04;;;;;;;13.27;11.53;;;;;;;2.12;47.46;97462.97;10453984;28;20247;-69
2024/01/17 10:19:06;;;;;;;15.63;12.37;;;;;;;4.72;43.72;97234.00;10472559;28;20422;-68
2024/01/17 10:24:10;;;;;;;17.90;14.57;;;;;;;4.47;43.85;97310.66;10470952;28;20602;-70
2024/01/17 10:29:11;;;;;;;16.53;12.63;;;;;;;4.23;44.35;97282.97;10471340;28;20629;-70
2024/01/17 10:34:13;;;;;;;14.77;12.03;;;;;;;3.73;45.31;97330.13;10452824;28;20264;-70
2024/01/17 10:39:19;;;;;;;13.40;11.37;;;;;;;3.04;46.07;97429.66;10468750;28;20754;-68
2024/01/17 10:44:22;;;;;;;13.63;11.53;;;;;;;3.53;45.38;97415.53;10474201;28;21047;-70
2024/01/17 10:49:24;;;;;;;14.33;11.73;;;;;;;4.35;44.68;97187.88;10469269;28;20242;-70
2024/01/17 10:54:29;;;;;;;15.07;12.17;;;;;;;2.86;47.54;97345.59;10470738;28;20243;-71
2024/01/17 10:59:32;;;;;;;17.43;13.33;;;;;;;5.26;44.13;97139.13;10458169;28;20223;-69
2024/01/17 11:06:21;;;;;;;16.40;12.67;;;;;;;1.38;50.34;97285.47;10497011;27;21255;-70
2024/01/17 11:11:24;;;;;;;15.00;13.40;;;;;;;1.27;50.71;97261.41;10417687;28;20282;-72
2024/01/17 11:16:27;;;;;;;18.47;15.23;;;;;;;3.60;46.83;97214.56;10368746;28;20729;-71
2024/01/17 11:21:32;;;;;;;15.60;12.90;;;;;;;3.77;45.69;97188.53;10374798;28;20230;-74
2024/01/17 11:26:42;;;;;;;17.00;14.43;;;;;;;3.03;48.34;97110.97;10386087;28;20243;-72
2024/01/17 11:31:49;;;;;;;13.93;12.47;;;;;;;2.81;48.40;97128.78;10376090;28;20237;-68
2024/01/17 11:36:54;;;;;;;12.77;11.43;;;;;;;2.41;49.98;97068.72;10361978;28;20716;-67
2024/01/17 11:41:56;;;;;;;12.90;11.47;;;;;;;4.49;45.83;97032.38;10371950;28;20233;-67
2024/01/17 11:47:01;;;;;;;11.80;10.40;;;;;;;4.02;45.52;97163.06;10370386;28;20249;-69
2024/01/17 11:52:07;;;;;;;12.33;11.03;;;;;;;2.22;49.60;97146.00;10363221;28;20232;-69
2024/01/17 11:57:09;;;;;;;13.00;10.93;;;;;;;1.76;49.43;97258.09;10374382;28;20501;-69
2024/01/17 12:02:34;;;;;;;12.10;10.70;;;;;;;3.65;47.33;97053.44;10385474;28;20325;-68
2024/01/17 12:07:49;;;;;;;11.23;10.03;;;;;;;3.47;46.70;97205.56;10382516;28;20686;-69
2024/01/17 12:12:56;;;;;;;11.50;10.40;;;;;;;4.22;45.71;97045.72;10369209;28;20239;-69
2024/01/17 12:17:58;;;;;;;10.33;9.23;;;;;;;1.61;48.56;97351.25;10362965;28;20794;-68
2024/01/17 12:23:00;;;;;;;15.83;13.60;;;;;;;3.57;47.70;96961.91;10385322;28;20517;-67
2024/01/17 12:28:02;;;;;;;11.93;10.70;;;;;;;4.34;46.32;96924.13;10395727;28;20234;-69
2024/01/17 12:33:04;;;;;;;10.73;9.63;;;;;;;3.91;45.15;97179.56;10368025;28;20219;-69
2024/01/17 12:38:06;;;;;;;10.03;8.73;;;;;;;3.67;46.41;97140.50;10383262;28;20686;-68
2024/01/17 12:43:07;;;;;;;11.00;9.80;;;;;;;4.50;44.83;97116.91;10371866;28;20232;-69
2024/01/17 12:48:10;;;;;;;11.07;9.90;;;;;;;3.83;45.94;97156.78;10391015;28;20206;-68
2024/01/17 12:53:13;;;;;;;11.27;10.17;;;;;;;3.34;47.08;97094.53;10369549;28;20467;-69
2024/01/17 12:58:15;;;;;;;12.83;11.40;;;;;;;4.57;46.30;96961.44;10385649;28;20652;-69
2024/01/17 13:03:18;;;;;;;9.97;8.70;;;;;;;2.72;48.90;97062.94;10369533;28;20278;-68
2024/01/17 13:08:22;;;;;;;10.57;9.47;;;;;;;3.46;47.48;97092.09;10384728;28;20658;-70
2024/01/17 13:13:28;;;;;;;14.03;12.37;;;;;;;4.64;45.60;96942.84;10381166;28;20311;-70
2024/01/17 13:18:30;;;;;;;15.10;11.40;;;;;;;2.95;47.53;97201.78;10389583;28;20607;-70
2024/01/17 13:23:32;;;;;;;13.90;12.13;;;;;;;4.40;46.04;97024.69;10374921;28;20252;-69
2024/01/17 13:28:34;;;;;;;11.23;10.10;;;;;;;3.55;47.90;97000.97;10381433;28;20253;-69
2024/01/17 13:33:37;;;;;;;10.93;9.53;;;;;;;3.27;48.37;96983.50;10378592;28;20243;-70
2024/01/17 13:38:39;;;;;;;9.73;8.73;;;;;;;2.78;48.72;97079.00;10390798;28;20252;-69
2024/01/17 13:43:41;;;;;;;9.73;8.73;;;;;;;4.63;45.18;96977.53;10356266;28;20237;-70
2024/01/17 13:48:43;;;;;;;15.03;12.40;;;;;;;5.08;44.96;96949.03;10391353;28;20234;-69
2024/01/17 13:53:53;;;;;;;17.80;15.77;;;;;;;4.19;46.98;96938.44;10359246;28;20241;-70
2024/01/17 13:58:54;;;;;;;11.43;10.23;;;;;;;3.46;46.94;97097.38;10365966;28;20714;-67
2024/01/17 14:03:56;;;;;;;10.23;8.97;;;;;;;4.52;46.78;96852.69;10375197;28;20240;-69
2024/01/17 14:08:58;;;;;;;11.70;9.73;;;;;;;1.93;50.29;97081.94;10388493;28;20250;-69
2024/01/17 14:13:59;;;;;;;13.40;9.80;;;;;;;3.30;48.69;96887.16;10384300;28;20315;-69
2024/01/17 14:19:02;;;;;;;11.20;10.10;;;;;;;3.70;47.47;96916.09;10376896;28;20283;-70
2024/01/17 14:24:04;;;;;;;9.97;8.97;;;;;;;4.04;47.16;96932.63;10377543;28;22497;-71
2024/01/17 14:29:07;;;;;;;12.60;11.30;;;;;;;3.21;48.21;96965.84;10367824;28;20373;-68
2024/01/17 14:34:14;;;;;;;12.37;10.90;;;;;;;4.66;47.02;96807.53;10377602;28;20242;-71
2024/01/17 14:39:20;;;;;;;11.97;10.57;;;;;;;5.25;45.94;96728.38;10373761;28;20460;-71
2024/01/17 14:44:22;;;;;;;13.10;11.13;;;;;;;4.84;47.92;96687.53;10373919;28;20236;-71
2024/01/17 14:49:24;;;;;;;11.77;10.43;;;;;;;3.98;48.27;96860.19;10374179;28;20326;-71
2024/01/17 14:54:26;;;;;;;13.70;11.63;;;;;;;4.47;46.53;96925.88;10371920;28;20244;-71
2024/01/17 14:59:27;;;;;;;17.50;13.97;;;;;;;6.10;44.47;96719.41;10371203;28;20324;-68
2024/01/17 15:04:29;;;;;;;13.23;11.83;;;;;;;4.15;47.26;96937.25;10362974;28;23281;-70
2024/01/17 15:09:35;;;;;;;19.83;15.13;;;;;;;1.60;52.73;97000.81;10381333;28;20599;-72
2024/01/17 15:14:37;;;;;;;12.43;10.70;;;;;;;2.14;55.07;96696.63;10380066;28;20727;-70
2024/01/17 15:19:39;;;;;;;13.90;11.67;;;;;;;3.41;53.13;96581.69;10372385;28;20239;-69
2024/01/17 15:24:40;;;;;;;14.93;11.87;;;;;;;3.42;54.98;96551.59;10383997;28;20243;-71
2024/01/17 15:29:43;;;;;;;17.70;12.27;;;;;;;4.33;52.13;96596.88;10380483;28;20323;-72
2024/01/17 15:34:45;;;;;;;13.10;11.20;;;;;;;4.19;50.94;96773.53;10369699;28;20240;-69
2024/01/17 15:39:48;;;;;;;14.70;12.83;;;;;;;4.91;49.86;96747.38;10368659;28;20242;-71
2024/01/17 15:44:52;;;;;;;15.50;11.83;;;;;;;3.13;54.08;96934.34;10374187;28;20238;-71
2024/01/17 15:49:54;;;;;;;15.33;12.00;;;;;;;4.07;54.78;96627.88;10368830;28;20295;-70
2024/01/17 15:54:55;;;;;;;13.90;10.07;;;;;;;4.91;54.05;96555.78;10350599;28;20475;-68
2024/01/17 15:59:57;;;;;;;15.83;11.97;;;;;;;5.87;51.00;96649.34;10344464;28;20323;-71
2024/01/17 16:04:59;;;;;;;14.70;11.17;;;;;;;6.11;51.67;96600.72;10343930;28;20248;-70
2024/01/17 16:10:01;;;;;;;18.10;12.77;;;;;;;6.18;51.94;96676.56;10345144;28;20672;-70
2024/01/17 16:15:02;;;;;;;18.07;12.97;;;;;;;6.16;50.80;96705.22;10349495;28;20230;-69
2024/01/17 16:20:08;;;;;;;16.83;12.63;;;;;;;6.23;50.74;96662.63;10336881;28;20244;-69
2024/01/17 16:25:11;;;;;;;17.37;13.10;;;;;;;5.64;51.80;96724.41;10351228;23;20806;-35
2024/01/17 16:30:13;;;;;;;18.90;14.53;;;;;;;5.38;52.75;96781.25;10355904;28;20417;-35
2024/01/17 16:35:15;;;;;;;17.57;12.03;;;;;;;5.29;53.03;96764.03;10355513;28;20703;-35
2024/01/17 16:40:17;;;;;;;20.20;15.37;;;;;;;5.12;53.21;96745.28;10358924;28;20263;-35
2024/01/17 16:45:19;;;;;;;19.57;13.47;;;;;;;5.99;52.35;96622.81;10358295;28;20240;-35
2024/01/17 16:50:21;;;;;;;17.27;12.40;;;;;;;5.54;53.26;96633.94;10354551;28;20568;-35
2024/01/17 16:55:22;;;;;;;20.27;13.43;;;;;;;6.04;52.78;96657.44;10357494;28;20705;-35
2024/01/17 17:00:24;;;;;;;19.20;12.90;;;;;;;6.66;51.86;96631.34;10339403;28;20729;-35
2024/01/17 17:05:26;;;;;;;14.97;11.93;;;;;;;6.37;51.84;96725.06;10356345;28;20734;-35
2024/01/17 17:10:29;;;;;;;14.80;11.53;;;;;;;6.44;53.16;96749.66;10346465;28;20229;-35
2024/01/17 17:15:31;;;;;;;13.73;10.67;;;;;;;7.79;51.32;96628.00;10353924;28;20620;-35
2024/01/17 17:20:33;;;;;;;14.57;10.27;;;;;;;8.07;49.98;96675.84;10356612;28;20232;-35
2024/01/17 17:25:34;;;;;;;15.07;9.37;;;;;;;7.44;51.61;96788.66;10352224;28;20269;-35
2024/01/17 17:30:37;;;;;;;10.07;8.47;;;;;;;8.39;50.67;96651.25;10352313;28;20238;-36
2024/01/17 17:35:39;;;;;;;7.10;6.40;;;;;;;8.27;52.09;96779.22;10353878;28;20781;-36
2024/01/17 17:40:41;;;;;;;5.17;4.73;;;;;;;8.39;52.66;96775.69;10351790;28;20234;-35
2024/01/17 17:45:46;;;;;;;5.73;5.20;;;;;;;8.52;52.49;96819.81;10356147;28;20236;-35
2024/01/17 17:50:48;;;;;;;6.37;4.90;;;;;;;8.07;54.49;96930.72;10353396;28;20253;-35
2024/01/17 17:55:50;;;;;;;5.97;5.37;;;;;;;9.14;52.57;96805.53;10360675;28;20240;-36
2024/01/17 18:00:52;;;;;;;6.87;5.57;;;;;;;9.40;52.83;96783.44;10350684;28;20269;-36
2024/01/17 18:05:54;;;;;;;5.70;5.20;;;;;;;10.01;50.84;96797.69;10355526;28;20237;-36
2024/01/17 18:10:56;;;;;;;5.90;5.13;;;;;;;9.92;51.96;96811.50;10355150;28;20242;-36
2024/01/17 18:15:59;;;;;;;5.77;4.93;;;;;;;10.37;51.77;96750.66;10359153;28;20501;-36
2024/01/17 18:21:03;;;;;;;4.77;4.27;;;;;;;10.38;51.44;96784.38;10353133;28;20655;-36
2024/01/17 18:26:05;;;;;;;7.17;4.97;;;;;;;10.21;51.62;96840.63;10303376;28;20227;-36
2024/01/17 18:31:06;;;;;;;6.40;4.53;;;;;;;10.03;51.82;96870.38;10272784;28;20305;-36
2024/01/17 18:36:08;;;;;;;5.40;4.23;;;;;;;10.08;52.99;96833.00;10277686;28;20235;-36
2024/01/17 18:41:11;;;;;;;4.30;3.90;;;;;;;10.39;53.39;96767.25;10272909;28;20695;-35
2024/01/17 18:46:13;;;;;;;3.97;3.67;;;;;;;9.69;54.99;96883.88;10276576;28;20326;-36
2024/01/17 18:51:15;;;;;;;4.40;3.93;;;;;;;10.39;53.99;96838.63;10271993;28;20223;-36
2024/01/17 18:56:17;;;;;;;5.10;3.90;;;;;;;10.20;55.23;96863.03;10285766;28;20727;-35
2024/01/17 19:01:19;;;;;;;6.03;4.30;;;;;;;11.13;53.98;96746.81;10273052;28;20679;-36
2024/01/17 19:06:26;;;;;;;4.10;3.70;;;;;;;10.31;55.79;96838.03;10273307;28;20288;-36
2024/01/17 19:11:29;;;;;;;4.60;3.90;;;;;;;10.84;56.01;96757.94;10271119;28;20240;-36
2024/01/17 19:16:30;;;;;;;4.17;3.50;;;;;;;10.82;54.65;96860.91;10278717;28;20349;-36
2024/01/17 19:21:32;;;;;;;5.00;3.33;;;;;;;11.39;52.27;96848.66;10263640;28;20265;-36
2024/01/17 19:26:35;;;;;;;3.80;3.50;;;;;;;11.59;52.71;96847.91;10355898;28;20276;-36
2024/01/17 19:31:39;;;;;;;3.80;3.50;;;;;;;9.77;55.80;97019.63;10361613;28;20233;-36
2024/01/17 19:36:41;;;;;;;4.00;3.70;;;;;;;11.45;52.86;96866.34;10355333;28;20229;-36
2024/01/17 19:41:43;;;;;;;4.80;3.80;;;;;;;11.46;51.76;96892.06;10362043;28;20311;-36
2024/01/17 19:46:47;;;;;;;3.73;3.43;;;;;;;10.90;55.60;96812.28;10308329;28;20246;-36
2024/01/17 19:51:49;;;;;;;3.37;3.10;;;;;;;11.71;51.86;96888.72;10313536;28;20235;-36
2024/01/17 19:56:51;;;;;;;5.50;4.10;;;;;;;12.22;50.86;96879.19;10296918;28;20235;-36
2024/01/17 20:01:52;;;;;;;4.80;4.40;;;;;;;11.83;51.94;96898.38;10324808;28;20244;-36
2024/01/17 20:06:55;;;;;;;3.57;3.27;;;;;;;11.53;53.50;96906.00;10315813;28;20234;-36
2024/01/17 20:11:58;;;;;;;5.37;4.40;;;;;;;11.67;52.47;96927.78;10354971;28;20670;-36
2024/01/17 20:16:59;;;;;;;4.10;3.63;;;;;;;11.24;54.20;96925.13;10323947;28;20242;-36
2024/01/17 20:22:02;;;;;;;3.73;3.43;;;;;;;11.97;52.81;96854.75;10350995;28;20234;-36
2024/01/17 20:27:04;;;;;;;3.70;3.40;;;;;;;12.24;52.30;96875.16;10344872;28;20240;-36
2024/01/17 20:32:06;;;;;;;5.23;3.77;;;;;;;11.22;53.69;96958.56;10399106;28;20232;-37
2024/01/17 20:37:08;;;;;;;4.20;3.90;;;;;;;11.72;52.99;96948.44;10404771;28;20694;-37
2024/01/17 20:42:10;;;;;;;4.60;4.20;;;;;;;12.12;51.48;96995.22;10396054;28;20207;-37
2024/01/17 20:47:12;;;;;;;4.77;4.13;;;;;;;12.41;51.04;96911.66;10399481;28;20225;-37
2024/01/17 20:52:13;;;;;;;3.97;3.67;;;;;;;10.71;54.05;97111.38;10394672;28;20270;-37
2024/01/17 20:57:15;;;;;;;3.43;3.23;;;;;;;11.18;53.58;97083.25;10398924;28;20281;-37
2024/01/17 21:02:17;;;;;;;3.90;3.60;;;;;;;11.38;54.39;96972.88;10384198;28;20623;-37
2024/01/17 21:07:18;;;;;;;3.10;2.90;;;;;;;12.52;50.96;96970.44;10395680;28;20290;-37
2024/01/17 21:12:24;;;;;;;3.57;3.27;;;;;;;10.87;54.20;97120.44;10383196;28;20568;-37
2024/01/17 21:17:27;;;;;;;3.30;3.10;;;;;;;10.45;54.85;97148.53;10396882;28;20244;-37
2024/01/17 21:22:29;;;;;;;3.90;3.37;;;;;;;12.76;50.98;96953.84;10375568;28;20236;-37
2024/01/17 21:27:31;;;;;;;3.63;3.33;;;;;;;11.16;54.13;97098.78;10397235;28;20841;-37
2024/01/17 21:32:33;;;;;;;3.67;3.37;;;;;;;12.17;51.02;97073.00;10399912;28;20340;-36
2024/01/17 21:37:35;;;;;;;3.37;3.17;;;;;;;11.71;52.32;97062.81;10409801;28;20236;-37
2024/01/17 21:42:37;;;;;;;3.30;3.00;;;;;;;11.61;54.42;97006.47;10397758;28;20243;-37
2024/01/17 21:47:38;;;;;;;3.63;3.30;;;;;;;10.57;55.40;97160.97;10400048;28;20245;-36
2024/01/17 21:52:40;;;;;;;3.83;3.53;;;;;;;11.65;53.51;97045.09;10400035;28;20575;-37
2024/01/17 21:57:42;;;;;;;3.97;3.57;;;;;;;11.62;53.98;97053.59;10394840;28;20233;-37
2024/01/17 22:02:43;;;;;;;4.43;4.03;;;;;;;12.47;51.26;97012.50;10376900;28;20245;-37
2024/01/17 22:07:45;;;;;;;4.30;3.90;;;;;;;13.02;50.62;96981.47;10394911;28;20254;-37
2024/01/17 22:12:47;;;;;;;3.73;3.43;;;;;;;10.86;54.87;97197.19;10397161;28;20678;-37
2024/01/17 22:17:51;;;;;;;3.23;2.93;;;;;;;12.15;52.61;97045.66;10402603;28;20274;-37
2024/01/17 22:22:53;;;;;;;4.70;3.50;;;;;;;12.05;52.78;97046.41;10392216;28;20298;-37
2024/01/17 22:27:56;;;;;;;4.00;3.60;;;;;;;12.77;51.24;96982.25;10399831;28;20581;-37
2024/01/17 22:32:58;;;;;;;3.77;3.47;;;;;;;12.47;52.56;96993.75;10399348;28;20217;-36
2024/01/17 22:38:01;;;;;;;3.80;3.50;;;;;;;11.91;53.28;97023.81;10397346;28;20742;-38
2024/01/17 22:43:03;;;;;;;3.57;3.00;;;;;;;11.94;51.80;97123.22;10394551;28;20298;-38
2024/01/17 22:48:05;;;;;;;3.63;3.10;;;;;;;12.11;52.75;97077.50;10396933;28;20282;-36
2024/01/17 22:53:09;;;;;;;3.57;3.17;;;;;;;12.95;50.70;97042.66;10395378;28;20240;-36
2024/01/17 22:58:11;;;;;;;3.37;3.13;;;;;;;12.47;51.59;97050.88;10397575;28;20310;-36
2024/01/17 23:03:13;;;;;;;4.00;3.30;;;;;;;11.81;53.44;97024.56;10395519;28;20240;-37
2024/01/17 23:08:15;;;;;;;3.30;3.00;;;;;;;12.06;51.49;97168.59;10395448;28;20252;-37
2024/01/17 23:13:19;;;;;;;3.43;2.90;;;;;;;12.12;52.09;97105.13;10394747;28;20260;-37
2024/01/17 23:18:24;;;;;;;3.07;2.87;;;;;;;12.11;52.02;97085.53;10398427;28;20250;-37